Airfield :
LOGIN :

Register | Disclaimer

   EN    FR    IT 

 










Legend :    VFR   Marginal VFR   IFR   Intensive IFR   Very Intensive IFR
Visi :
Ceiling :
>= 8 km
>= 3000ft
5 to 8 km
1000 to 3000 ft
1500m to 5 km
500 to 1000 ft
800 to 1500m
200 to 500 ft
< 800m
< 200 ft
Symbols :   Thunderstorms  Fog  Heavy snow  Heavy precipitations  Wind > 20 kt
SIGMETs :     Misc.  Thunderstorms  Icing  Turbulence  Mountain Waves  Volcanic Ashes






- Airport Elevation : 80 ft
- IATA code : LPL


EGGP - Liverpool John Lennon

CURRENT METAR :
  • 130820Z 26009KT 230V290 9000 VCSH SCT014 BKN019 15/13 Q1014

EXPIRED METARs :
  • 130750Z 28006KT 250V310 9999 VCSH SCT018 BKN030 17/13 Q1014
  • 130720Z 28008KT 9999 FEW038 FEW055TCU 14/13 Q1015
  • 130650Z 27008KT 9999 FEW035 14/13 Q1015
  • 130550Z 27007KT 9999 FEW040 14/13 Q1015
  • 130520Z 25005KT 9999 FEW020 BKN040 14/13 Q1015
  • 130450Z 27004KT 9999 FEW020 BKN040 13/12 Q1015
  • 130420Z AUTO 30002KT 9999 NCD 13/12 Q1015
  • 130350Z AUTO 28004KT 9999 NCD 13/12 Q1015

TAF AMD TAF EGGP
Valid from the 13 at 08:00 until the 14 at 06:00 UTC


130827Z 1308/1406 30008KT 9999 SCT025
PROB30
TEMPO 1308/1318 7000 SHRA
PROB30
TEMPO 1403/1406 BKN012
ATIS : +44 151 907 2000 (option 5 or ext 5150)
Met : +44 871 750 5150



MET'MAP, your aeronautical weather chart ! - Copyright ORBIFLY December 2007 - Disclaimer

ORBIFLY MET'MAP TEAM :

Programming & Development : Alexandra Zaïnal
Original concept : Baudouin d'Aumeries
Technical & hardware support : Manuel Goepfert
Assistance : Marc-Olivier Méhu




SOURCES & CREDITS :

   NOAA